createdAt,value
2022-11-13T00:01:40.960Z,3.80
2022-11-13T00:04:26.372Z,3.79
2022-11-13T00:07:11.654Z,3.83
2022-11-13T00:09:56.963Z,3.82
2022-11-13T00:12:42.368Z,3.84
2022-11-13T00:15:27.477Z,3.88
2022-11-13T00:18:12.553Z,3.89
2022-11-13T00:20:58.846Z,3.90
2022-11-13T00:23:44.569Z,3.97
2022-11-13T00:26:31.114Z,4.03
2022-11-13T00:29:16.432Z,4.09
2022-11-13T00:32:01.664Z,4.07
2022-11-13T00:34:48.280Z,4.08
2022-11-13T00:37:33.546Z,4.15
2022-11-13T00:40:18.827Z,4.13
2022-11-13T00:43:03.785Z,4.12
2022-11-13T00:45:49.089Z,4.17
2022-11-13T00:48:34.739Z,4.11
2022-11-13T00:51:20.065Z,4.07
2022-11-13T00:54:05.338Z,4.04
2022-11-13T00:56:50.660Z,4.02
2022-11-13T00:59:35.836Z,3.96
2022-11-13T01:02:20.830Z,3.94
2022-11-13T01:05:06.592Z,3.93
2022-11-13T01:07:51.905Z,3.97
2022-11-13T01:10:41.246Z,3.93
2022-11-13T01:13:26.369Z,3.96
2022-11-13T01:16:13.413Z,3.95
2022-11-13T01:18:59.666Z,3.93
2022-11-13T01:21:44.819Z,3.97
2022-11-13T01:24:31.624Z,3.93
2022-11-13T01:27:16.943Z,3.88
2022-11-13T01:30:02.417Z,3.91
2022-11-13T01:32:47.898Z,3.96
2022-11-13T01:35:33.233Z,3.91
2022-11-13T01:38:18.521Z,3.94
2022-11-13T01:41:05.537Z,3.87
2022-11-13T01:43:52.516Z,3.96
2022-11-13T01:46:44.031Z,3.92
2022-11-13T01:49:31.838Z,3.92
2022-11-13T01:52:22.966Z,3.90
2022-11-13T01:55:12.797Z,3.84
2022-11-13T01:57:59.269Z,3.83
2022-11-13T02:00:44.545Z,3.89
2022-11-13T02:03:30.025Z,3.83
2022-11-13T02:06:17.560Z,3.86
2022-11-13T02:09:03.570Z,3.84
2022-11-13T02:11:49.353Z,3.86
2022-11-13T02:14:36.613Z,3.85
2022-11-13T02:17:28.445Z,3.91
2022-11-13T02:20:15.256Z,3.86
2022-11-13T02:23:22.165Z,3.86
2022-11-13T02:26:08.796Z,3.64
2022-11-13T02:28:54.245Z,3.62
2022-11-13T02:31:39.404Z,3.59
2022-11-13T02:34:24.689Z,3.57
2022-11-13T02:37:09.785Z,3.55
2022-11-13T02:39:54.988Z,3.67
2022-11-13T02:42:40.234Z,3.68
2022-11-13T02:45:25.548Z,3.64
2022-11-13T02:48:10.879Z,3.54
2022-11-13T02:50:56.152Z,3.57
2022-11-13T02:53:41.513Z,3.56
2022-11-13T02:56:26.784Z,3.44
2022-11-13T02:59:12.011Z,3.40
2022-11-13T03:01:57.292Z,3.40
2022-11-13T03:05:10.811Z,3.35
2022-11-13T03:07:48.234Z,3.40
2022-11-13T03:10:33.445Z,3.39
2022-11-13T03:13:18.621Z,3.35
2022-11-13T03:16:12.882Z,3.17
2022-11-13T03:18:57.791Z,3.21
2022-11-13T03:21:43.206Z,3.15
2022-11-13T03:24:28.285Z,3.10
2022-11-13T03:27:13.629Z,3.08
2022-11-13T03:30:01.958Z,3.03
2022-11-13T03:32:47.132Z,3.01
2022-11-13T03:35:38.030Z,2.96
2022-11-13T03:38:27.688Z,2.95
2022-11-13T03:41:14.868Z,2.95
2022-11-13T03:43:59.858Z,3.00
2022-11-13T03:46:45.127Z,2.97
2022-11-13T03:49:30.231Z,2.96
2022-11-13T03:52:15.454Z,2.98
2022-11-13T03:55:00.501Z,2.98
2022-11-13T03:57:47.589Z,2.96
2022-11-13T04:00:33.094Z,2.93
2022-11-13T04:03:18.020Z,2.89
2022-11-13T04:06:03.513Z,2.90
2022-11-13T04:08:48.702Z,2.92
2022-11-13T04:11:33.959Z,2.97
2022-11-13T04:14:19.251Z,2.84
2022-11-13T04:17:04.425Z,2.87
2022-11-13T04:19:49.706Z,2.89
2022-11-13T04:22:34.727Z,2.86
2022-11-13T04:25:20.032Z,3.00
2022-11-13T04:28:05.138Z,3.04
2022-11-13T04:30:53.224Z,2.94
2022-11-13T04:33:38.254Z,2.94
2022-11-13T04:36:23.520Z,2.92
2022-11-13T04:39:08.932Z,2.99
2022-11-13T04:42:13.104Z,2.91
2022-11-13T04:44:58.346Z,2.93
2022-11-13T04:47:44.166Z,2.88
2022-11-13T04:50:30.931Z,2.70
2022-11-13T04:53:15.955Z,2.69
2022-11-13T04:56:03.870Z,2.55
2022-11-13T04:58:48.996Z,2.64
2022-11-13T05:01:35.484Z,2.57
2022-11-13T05:04:20.812Z,2.47
2022-11-13T05:07:06.159Z,2.41
2022-11-13T05:09:51.412Z,2.32
2022-11-13T05:12:36.660Z,2.29
2022-11-13T05:15:21.930Z,2.31
2022-11-13T05:18:07.216Z,2.34
2022-11-13T05:20:52.471Z,2.32
2022-11-13T05:23:37.886Z,2.39
2022-11-13T05:26:23.197Z,2.49
2022-11-13T05:29:08.488Z,2.46
2022-11-13T05:31:53.849Z,2.41
2022-11-13T05:34:39.237Z,2.46
2022-11-13T05:37:24.544Z,2.42
2022-11-13T05:40:10.437Z,2.43
2022-11-13T05:42:56.070Z,2.42
2022-11-13T05:45:40.924Z,2.40
2022-11-13T05:48:26.510Z,2.42
2022-11-13T05:51:16.054Z,2.49
2022-11-13T05:54:01.904Z,2.60
2022-11-13T05:56:47.253Z,2.49
2022-11-13T05:59:32.733Z,2.52
2022-11-13T06:02:17.789Z,2.44
2022-11-13T06:05:03.178Z,2.40
2022-11-13T06:07:51.474Z,2.41
2022-11-13T06:10:36.881Z,2.37
2022-11-13T06:13:22.146Z,2.40
2022-11-13T06:16:08.642Z,2.52
2022-11-13T06:18:59.388Z,2.43
2022-11-13T06:21:44.593Z,2.41
2022-11-13T06:24:29.731Z,2.44
2022-11-13T06:27:15.005Z,2.49
2022-11-13T06:30:00.371Z,2.53
2022-11-13T06:32:52.033Z,2.39
2022-11-13T06:35:37.013Z,2.38
2022-11-13T06:38:22.413Z,2.40
2022-11-13T06:41:09.391Z,2.43
2022-11-13T06:43:56.536Z,2.46
2022-11-13T06:46:44.875Z,2.45
2022-11-13T06:49:30.196Z,2.49
2022-11-13T06:52:15.408Z,2.52
2022-11-13T06:55:01.458Z,2.60
2022-11-13T06:57:46.381Z,2.71
2022-11-13T07:00:36.381Z,2.80
2022-11-13T07:03:26.260Z,2.68
2022-11-13T07:06:15.077Z,2.58
2022-11-13T07:09:00.382Z,2.64
2022-11-13T07:11:45.604Z,2.74
2022-11-13T07:14:30.984Z,2.73
2022-11-13T07:17:16.234Z,2.76
2022-11-13T07:20:01.562Z,2.72
2022-11-13T07:22:46.813Z,2.75
2022-11-13T07:25:32.498Z,2.77
2022-11-13T07:28:19.523Z,2.81
2022-11-13T07:31:05.455Z,2.84
2022-11-13T07:33:51.960Z,2.91
2022-11-13T07:36:37.296Z,3.02
2022-11-13T07:39:24.029Z,3.09
2022-11-13T07:42:09.344Z,3.08
2022-11-13T07:44:55.512Z,3.12
2022-11-13T07:47:41.581Z,3.11
2022-11-13T07:50:32.504Z,3.07
2022-11-13T07:53:18.238Z,3.11
2022-11-13T07:56:03.982Z,2.97
2022-11-13T07:58:49.542Z,3.03
2022-11-13T08:01:34.604Z,2.94
2022-11-13T08:04:20.183Z,3.02
2022-11-13T08:07:05.471Z,3.08
2022-11-13T08:09:50.975Z,2.98
2022-11-13T08:12:36.326Z,2.88
2022-11-13T08:15:21.621Z,2.91
2022-11-13T08:18:07.107Z,3.02
2022-11-13T08:20:52.295Z,3.10
2022-11-13T08:23:37.720Z,2.94
2022-11-13T08:26:23.370Z,2.97
2022-11-13T08:29:08.378Z,2.87
2022-11-13T08:31:53.700Z,3.04
2022-11-13T08:34:38.929Z,3.05
2022-11-13T08:37:24.219Z,3.14
2022-11-13T08:40:10.010Z,3.26
2022-11-13T08:43:04.914Z,3.40
2022-11-13T08:45:50.287Z,3.38
2022-11-13T08:48:35.834Z,3.39
2022-11-13T08:51:21.466Z,3.42
2022-11-13T08:54:08.733Z,3.47
2022-11-13T08:56:57.154Z,3.44
2022-11-13T08:59:44.209Z,3.57
2022-11-13T09:02:29.386Z,3.57
2022-11-13T09:05:17.587Z,3.36
2022-11-13T09:08:02.640Z,3.58
2022-11-13T09:10:47.905Z,3.64
2022-11-13T09:13:34.309Z,3.63
2022-11-13T09:16:19.557Z,3.79
2022-11-13T09:19:05.010Z,3.88
2022-11-13T09:21:51.718Z,4.01
2022-11-13T09:24:36.602Z,3.98
2022-11-13T09:27:21.907Z,3.93
2022-11-13T09:30:07.872Z,3.93
2022-11-13T09:32:57.232Z,3.83
2022-11-13T09:35:43.503Z,3.74
2022-11-13T09:38:31.964Z,3.88
2022-11-13T09:41:21.110Z,3.86
2022-11-13T09:44:15.124Z,3.85
2022-11-13T09:47:14.441Z,4.16
2022-11-13T09:50:17.004Z,4.40
2022-11-13T09:53:03.841Z,4.35
2022-11-13T09:56:08.141Z,4.42
2022-11-13T09:59:16.722Z,4.70
2022-11-13T10:02:04.591Z,4.86
2022-11-13T10:05:11.221Z,5.08
2022-11-13T10:08:19.521Z,5.41
2022-11-13T10:11:26.454Z,5.48
2022-11-13T10:14:37.737Z,5.66
2022-11-13T10:17:36.439Z,5.80
2022-11-13T10:20:29.595Z,5.97
2022-11-13T10:23:22.530Z,6.08
2022-11-13T10:26:15.785Z,6.46
2022-11-13T10:29:10.708Z,6.47
2022-11-13T10:31:58.269Z,6.59
2022-11-13T10:35:08.876Z,6.52
2022-11-13T10:38:20.445Z,6.52
2022-11-13T10:41:12.668Z,6.15
2022-11-13T10:44:02.165Z,6.20
2022-11-13T10:46:47.536Z,6.19
2022-11-13T10:49:32.806Z,6.08
2022-11-13T10:52:28.209Z,6.06
2022-11-13T10:55:25.045Z,6.07
2022-11-13T10:58:16.272Z,5.92
2022-11-13T11:01:01.640Z,5.87
2022-11-13T11:03:50.741Z,5.93
2022-11-13T11:09:46.637Z,6.09
2022-11-13T11:12:32.330Z,6.12
2022-11-13T11:15:17.453Z,6.10
2022-11-13T11:18:07.828Z,6.70
2022-11-13T11:21:05.098Z,7.01
2022-11-13T11:23:59.695Z,7.06
2022-11-13T11:26:52.236Z,6.87
2022-11-13T11:29:46.702Z,6.80
2022-11-13T11:32:36.842Z,6.80
2022-11-13T11:35:28.206Z,6.72
2022-11-13T11:38:25.573Z,6.55
2022-11-13T11:41:17.581Z,6.65
2022-11-13T11:44:14.763Z,6.77
2022-11-13T11:47:00.039Z,6.83
2022-11-13T11:49:45.625Z,7.02
2022-11-13T11:52:46.008Z,7.07
2022-11-13T11:55:48.854Z,7.04
2022-11-13T11:58:44.549Z,7.00
2022-11-13T12:01:39.880Z,6.47
2022-11-13T12:05:01.352Z,6.29
2022-11-13T12:08:19.176Z,6.23
2022-11-13T12:11:27.573Z,6.07
2022-11-13T12:14:25.126Z,6.17
2022-11-13T12:17:36.436Z,6.31
2022-11-13T12:20:30.604Z,6.36
2022-11-13T12:23:30.673Z,6.32
2022-11-13T12:26:37.375Z,6.55
2022-11-13T12:29:39.481Z,6.57
2022-11-13T12:32:33.425Z,6.35
2022-11-13T12:35:21.627Z,6.12
2022-11-13T12:38:19.000Z,5.89
2022-11-13T12:41:22.036Z,6.82
2022-11-13T12:44:28.775Z,7.03
2022-11-13T12:47:14.556Z,9.18
2022-11-13T12:50:01.819Z,10.97
2022-11-13T12:53:02.025Z,10.77
2022-11-13T12:55:59.848Z,9.05
2022-11-13T12:59:23.563Z,7.98
2022-11-13T13:02:31.171Z,7.42
2022-11-13T13:05:20.168Z,7.05
2022-11-13T13:08:05.479Z,7.00
2022-11-13T13:11:03.371Z,6.75
2022-11-13T13:14:15.718Z,6.52
2022-11-13T13:17:27.169Z,6.42
2022-11-13T13:20:15.586Z,6.63
2022-11-13T13:23:05.953Z,6.66
2022-11-13T13:26:04.647Z,7.43
2022-11-13T13:29:02.242Z,9.00
2022-11-13T13:31:59.333Z,10.97
2022-11-13T13:34:56.359Z,12.56
2022-11-13T13:37:58.440Z,13.60
2022-11-13T13:40:52.454Z,13.35
2022-11-13T13:44:03.908Z,14.70
2022-11-13T13:46:49.533Z,15.22
2022-11-13T13:49:35.367Z,16.20
2022-11-13T13:52:27.915Z,14.57
2022-11-13T13:55:25.408Z,13.37
2022-11-13T13:58:16.000Z,13.30
2022-11-13T14:01:18.294Z,14.93
2022-11-13T14:04:25.768Z,14.41
2022-11-13T14:07:20.134Z,14.53
2022-11-13T14:10:14.514Z,16.03
2022-11-13T14:12:59.820Z,15.26
2022-11-13T14:15:45.116Z,16.87
2022-11-13T14:18:31.603Z,17.98
2022-11-13T14:21:24.914Z,18.42
2022-11-13T14:24:36.165Z,18.45
2022-11-13T14:27:26.581Z,18.75
2022-11-13T14:30:41.665Z,17.27
2022-11-13T14:33:36.478Z,17.46
2022-11-13T14:36:29.983Z,17.79
2022-11-13T14:39:24.874Z,17.77
2022-11-13T14:42:22.686Z,16.94
2022-11-13T14:45:23.747Z,17.44
2022-11-13T14:48:24.559Z,17.41
2022-11-13T14:51:23.868Z,13.92
2022-11-13T14:55:00.214Z,12.07
2022-11-13T14:57:50.166Z,11.10
2022-11-13T15:00:36.839Z,9.71
2022-11-13T15:03:22.289Z,8.79
2022-11-13T15:06:23.215Z,8.23
2022-11-13T15:09:14.813Z,8.18
2022-11-13T15:11:59.837Z,7.43
2022-11-13T15:14:45.102Z,7.04
2022-11-13T15:17:30.803Z,6.87
2022-11-13T15:20:18.680Z,6.54
2022-11-13T15:23:03.925Z,6.22
2022-11-13T15:25:49.178Z,6.14
2022-11-13T15:28:34.508Z,5.92
2022-11-13T15:31:23.166Z,5.75
2022-11-13T15:34:12.530Z,5.52
2022-11-13T15:36:57.532Z,5.38
2022-11-13T15:39:43.092Z,5.28
2022-11-13T15:42:34.592Z,5.16
2022-11-13T15:45:19.682Z,5.11
2022-11-13T15:48:09.512Z,4.94
2022-11-13T15:50:54.531Z,4.81
2022-11-13T15:53:39.850Z,4.68
2022-11-13T15:56:25.392Z,4.59
2022-11-13T15:59:13.099Z,4.51
2022-11-13T16:01:58.510Z,4.39
2022-11-13T16:04:56.102Z,4.28
2022-11-13T16:07:42.651Z,4.22
2022-11-13T16:10:27.975Z,4.19
2022-11-13T16:13:13.103Z,4.16
2022-11-13T16:15:59.784Z,4.15
2022-11-13T16:18:44.917Z,4.08
2022-11-13T16:21:30.874Z,3.99
2022-11-13T16:24:18.797Z,3.92
2022-11-13T16:27:06.371Z,3.86
2022-11-13T16:29:51.814Z,3.84
2022-11-13T16:32:37.037Z,3.77
2022-11-13T16:35:22.218Z,3.77
2022-11-13T16:38:13.930Z,3.69
2022-11-13T16:40:59.172Z,3.62
2022-11-13T16:43:44.880Z,3.58
2022-11-13T16:46:33.004Z,3.58
2022-11-13T16:49:21.074Z,3.56
2022-11-13T16:52:06.023Z,3.60
2022-11-13T16:54:51.569Z,3.62
2022-11-13T16:57:37.071Z,3.62
2022-11-13T17:00:25.285Z,3.74
2022-11-13T17:03:10.196Z,3.74
2022-11-13T17:05:55.223Z,3.75
2022-11-13T17:08:40.397Z,3.76
2022-11-13T17:11:27.100Z,3.85
2022-11-13T17:14:14.475Z,3.92
2022-11-13T17:16:59.342Z,3.94
2022-11-13T17:19:44.528Z,3.97
2022-11-13T17:22:29.536Z,4.04
2022-11-13T17:25:17.144Z,4.08
2022-11-13T17:28:02.214Z,4.08
2022-11-13T17:30:47.390Z,4.16
2022-11-13T17:33:33.294Z,4.16
2022-11-13T17:36:18.218Z,4.15
2022-11-13T17:39:04.118Z,4.16
2022-11-13T17:41:50.577Z,4.20
2022-11-13T17:44:35.490Z,4.24
2022-11-13T17:47:20.701Z,4.40
2022-11-13T17:50:07.849Z,4.37
2022-11-13T17:52:53.847Z,4.30
2022-11-13T17:55:39.093Z,4.30
2022-11-13T17:58:25.075Z,4.34
2022-11-13T18:01:19.311Z,4.39
2022-11-13T18:04:04.999Z,4.46
2022-11-13T18:06:49.976Z,4.39
2022-11-13T18:09:35.285Z,4.38
2022-11-13T18:12:21.470Z,4.32
2022-11-13T18:15:07.273Z,4.37
2022-11-13T18:17:52.552Z,4.46
2022-11-13T18:20:40.155Z,4.52
2022-11-13T18:23:25.003Z,4.45
2022-11-13T18:26:12.654Z,4.43
2022-11-13T18:28:58.565Z,4.46
2022-11-13T18:31:44.351Z,4.47
2022-11-13T18:34:29.842Z,4.48
2022-11-13T18:37:14.851Z,4.47
2022-11-13T18:40:01.661Z,4.52
2022-11-13T18:42:46.781Z,4.48
2022-11-13T18:45:31.843Z,4.43
2022-11-13T18:48:17.152Z,4.46
2022-11-13T18:51:09.921Z,4.51
2022-11-13T18:53:56.911Z,4.48
2022-11-13T18:56:42.187Z,4.35
2022-11-13T18:59:27.026Z,4.34
2022-11-13T19:02:13.159Z,4.26
2022-11-13T19:04:58.447Z,4.36
2022-11-13T19:07:43.878Z,4.40
2022-11-13T19:10:28.882Z,4.38
2022-11-13T19:13:14.170Z,4.47
2022-11-13T19:16:08.701Z,4.46
2022-11-13T19:18:56.791Z,4.51
2022-11-13T19:21:42.304Z,4.51
2022-11-13T19:24:30.689Z,4.51
2022-11-13T19:27:15.576Z,4.49
2022-11-13T19:30:01.012Z,4.51
2022-11-13T19:32:46.232Z,4.50
2022-11-13T19:35:31.469Z,4.52
2022-11-13T19:38:17.117Z,4.49
2022-11-13T19:41:03.062Z,4.53
2022-11-13T19:43:48.888Z,4.47
2022-11-13T19:46:34.191Z,4.43
2022-11-13T19:49:19.517Z,4.48
2022-11-13T19:52:05.240Z,4.48
2022-11-13T19:54:50.090Z,4.51
2022-11-13T19:57:35.349Z,4.51
2022-11-13T20:00:20.633Z,4.55
2022-11-13T20:03:07.813Z,4.50
2022-11-13T20:05:55.587Z,4.50
2022-11-13T20:08:42.027Z,4.49
2022-11-13T20:11:27.865Z,4.43
2022-11-13T20:14:13.104Z,4.44
2022-11-13T20:16:58.021Z,4.35
2022-11-13T20:19:43.312Z,4.38
2022-11-13T20:22:28.374Z,4.30
2022-11-13T20:25:13.681Z,4.29
2022-11-13T20:27:58.880Z,4.29
2022-11-13T20:30:44.096Z,4.30
2022-11-13T20:33:32.144Z,4.36
2022-11-13T20:36:18.138Z,4.36
2022-11-13T20:39:06.891Z,4.37
2022-11-13T20:41:54.274Z,4.30
2022-11-13T20:44:39.687Z,4.32
2022-11-13T20:47:24.866Z,4.38
2022-11-13T20:50:10.426Z,4.34
2022-11-13T20:52:55.406Z,4.28
2022-11-13T20:55:40.684Z,4.39
2022-11-13T20:58:26.373Z,4.35
2022-11-13T21:01:14.281Z,4.32
2022-11-13T21:04:00.109Z,4.27
2022-11-13T21:06:45.072Z,4.27
2022-11-13T21:09:30.347Z,4.19
2022-11-13T21:12:15.623Z,4.13
2022-11-13T21:15:00.828Z,4.12
2022-11-13T21:17:46.218Z,4.21
2022-11-13T21:20:33.665Z,4.24
2022-11-13T21:23:18.721Z,4.21
2022-11-13T21:26:05.816Z,4.31
2022-11-13T21:28:57.352Z,4.14
2022-11-13T21:31:42.403Z,4.14
2022-11-13T21:34:27.662Z,4.01
2022-11-13T21:37:14.329Z,4.02
2022-11-13T21:39:59.535Z,3.97
2022-11-13T21:42:45.171Z,4.06
2022-11-13T21:45:33.708Z,3.99
2022-11-13T21:48:18.742Z,4.00
2022-11-13T21:51:04.154Z,3.91
2022-11-13T21:53:49.377Z,3.79
2022-11-13T21:56:36.386Z,3.71
2022-11-13T21:59:21.378Z,3.61
2022-11-13T22:02:09.461Z,3.63
2022-11-13T22:04:54.480Z,3.57
2022-11-13T22:07:39.728Z,3.51
2022-11-13T22:10:25.125Z,3.52
2022-11-13T22:13:10.085Z,3.62
2022-11-13T22:15:55.291Z,3.61
2022-11-13T22:18:40.670Z,3.63
2022-11-13T22:21:28.199Z,3.56
2022-11-13T22:24:14.842Z,3.48
2022-11-13T22:26:59.880Z,3.46
2022-11-13T22:29:44.960Z,3.46
2022-11-13T22:32:30.675Z,3.51
2022-11-13T22:35:15.737Z,3.49
2022-11-13T22:38:02.167Z,3.43
2022-11-13T22:40:47.377Z,3.46
2022-11-13T22:43:35.302Z,3.49
2022-11-13T22:46:23.423Z,3.43
2022-11-13T22:49:10.726Z,3.49
2022-11-13T22:51:55.686Z,3.50
2022-11-13T22:54:40.705Z,3.49
2022-11-13T22:57:25.854Z,3.42
2022-11-13T23:00:11.528Z,3.42
2022-11-13T23:03:00.351Z,3.36
2022-11-13T23:05:45.276Z,3.39
2022-11-13T23:08:31.728Z,3.34
2022-11-13T23:11:23.154Z,3.28
2022-11-13T23:14:11.818Z,3.32
2022-11-13T23:16:59.831Z,3.25
2022-11-13T23:19:44.841Z,3.30
2022-11-13T23:22:30.053Z,3.39
2022-11-13T23:25:15.131Z,3.49
2022-11-13T23:28:00.323Z,3.54
2022-11-13T23:30:45.447Z,3.43
2022-11-13T23:33:31.728Z,3.50
2022-11-13T23:36:18.221Z,3.46
2022-11-13T23:39:03.739Z,3.43
2022-11-13T23:41:49.003Z,3.40
2022-11-13T23:44:34.256Z,3.21
2022-11-13T23:47:19.462Z,3.12
2022-11-13T23:50:05.834Z,3.17
2022-11-13T23:52:51.061Z,3.21
2022-11-13T23:55:40.850Z,3.16
2022-11-13T23:58:26.024Z,3.15
